Hanoi, Vietnam
Current Conditions -  °F | °C
As of 11:30 PM on Saturday 22 Nov 2014 (Local Time) from VVNB Reporting Station
Haze Haze  
Wind Chill: 72°   Ceiling: 7000
Heat Index: 72°   Visibility: 2.9mi
Dew Point: 70°   Wind: 7mph
Humidity: 94%   Direction: 90°E
Pressure: 29.97"   Gusts: NA
Location:  21.02°N, 105.85°E
Report Text: VVNB 221630Z 09006KT 4700 BR FEW017 BKN070 22/21 Q1015 NOSIG
Loading
Personal Weather Stations






























Interactive Weather Map New forecast layout! Learn more

10-Day Weather Forecast

Advertisements
Track Severe Weather on mobile